Time,TemperatureF,DewpointF,PressureIn,WindDirection,WindDirectionDegrees,WindSpeedMPH,WindSpeedGustMPH,Humidity,HourlyPrecipIn,Conditions,Clouds,dailyrainin,SoftwareType,DateUTC
2013-02-23 00:00:00,19.3,16.9,29.84,ENE,71,0.0,0.0,90,0.00,,---,0.00,VWS V13.01,2013-02-23 06:00:00,
2013-02-23 00:05:00,19.2,16.8,29.84,ENE,71,0.0,0.0,90,0.00,,---,0.00,VWS V13.01,2013-02-23 06:05:00,
2013-02-23 00:10:00,19.2,16.8,29.84,ENE,71,0.0,0.0,90,0.00,,---,0.00,VWS V13.01,2013-02-23 06:10:00,
2013-02-23 00:15:00,19.2,16.8,29.84,ENE,71,0.0,0.0,90,0.00,,---,0.00,VWS V13.01,2013-02-23 06:15:00,
2013-02-23 00:21:00,19.1,16.7,29.83,ENE,71,0.0,0.0,90,0.00,,---,0.00,VWS V13.01,2013-02-23 06:21:00,
2013-02-23 00:26:00,19.1,16.7,29.84,ENE,71,0.0,0.0,90,0.00,,---,0.00,VWS V13.01,2013-02-23 06:26:00,
2013-02-23 00:31:00,19.1,16.7,29.83,ENE,71,0.0,0.0,90,0.00,,---,0.00,VWS V13.01,2013-02-23 06:31:00,
2013-02-23 00:36:00,19.1,16.7,29.83,ENE,71,0.0,0.0,90,0.00,,---,0.00,VWS V13.01,2013-02-23 06:36:00,
2013-02-23 00:41:00,19.1,16.7,29.83,ENE,71,0.0,0.0,90,0.00,,---,0.00,VWS V13.01,2013-02-23 06:41:00,
2013-02-23 00:46:00,19.1,16.7,29.83,ENE,71,0.0,0.0,90,0.00,,---,0.00,VWS V13.01,2013-02-23 06:46:00,
2013-02-23 00:51:00,19.1,16.7,29.83,ENE,71,0.0,0.0,90,0.00,,---,0.00,VWS V13.01,2013-02-23 06:51:00,
2013-02-23 00:56:00,19.1,16.7,29.83,ENE,71,0.0,0.0,90,0.00,,---,0.00,VWS V13.01,2013-02-23 06:56:00,
2013-02-23 01:11:00,19.1,16.7,29.83,ENE,71,0.0,0.0,90,0.00,,---,0.00,VWS V13.01,2013-02-23 07:11:00,
2013-02-23 01:16:00,19.0,16.6,29.83,ENE,71,0.0,0.0,90,0.00,,---,0.00,VWS V13.01,2013-02-23 07:16:00,
2013-02-23 01:21:00,19.0,16.3,29.82,ENE,71,0.0,0.0,89,0.00,,---,0.00,VWS V13.01,2013-02-23 07:21:00,
2013-02-23 01:26:00,18.9,16.5,29.82,ENE,71,0.0,0.0,90,0.00,,---,0.00,VWS V13.01,2013-02-23 07:26:00,
2013-02-23 01:31:00,18.9,16.2,29.82,ENE,71,0.0,0.0,89,0.00,,---,0.00,VWS V13.01,2013-02-23 07:31:00,
2013-02-23 01:36:00,18.8,16.1,29.82,ENE,71,0.0,0.0,89,0.00,,---,0.00,VWS V13.01,2013-02-23 07:36:00,
2013-02-23 01:41:00,18.8,16.1,29.82,ENE,71,0.0,0.0,89,0.00,,---,0.00,VWS V13.01,2013-02-23 07:41:00,
2013-02-23 01:46:00,18.7,16.0,29.82,ENE,71,0.0,0.0,89,0.00,,---,0.00,VWS V13.01,2013-02-23 07:46:00,
2013-02-23 01:51:00,18.6,15.9,29.82,ENE,71,0.0,0.0,89,0.00,,---,0.00,VWS V13.01,2013-02-23 07:51:00,
2013-02-23 01:56:00,18.6,15.9,29.82,ENE,71,0.0,0.0,89,0.00,,---,0.00,VWS V13.01,2013-02-23 07:56:00,
2013-02-23 02:01:00,18.4,15.7,29.82,ENE,71,0.0,0.0,89,0.00,,---,0.00,VWS V13.01,2013-02-23 08:01:00,
2013-02-23 02:06:00,18.4,15.7,29.82,ENE,71,0.0,0.0,89,0.00,,---,0.00,VWS V13.01,2013-02-23 08:06:00,
2013-02-23 02:11:00,18.3,15.6,29.82,ENE,71,0.0,0.0,89,0.00,,---,0.00,VWS V13.01,2013-02-23 08:11:00,
2013-02-23 02:17:00,18.2,15.5,29.82,ENE,71,0.0,1.0,89,0.00,,---,0.00,VWS V13.01,2013-02-23 08:17:00,
2013-02-23 02:22:00,18.1,15.4,29.82,ENE,71,0.0,1.0,89,0.00,,---,0.00,VWS V13.01,2013-02-23 08:22:00,
2013-02-23 02:27:00,18.1,15.4,29.82,ENE,71,0.0,1.0,89,0.00,,---,0.00,VWS V13.01,2013-02-23 08:27:00,
2013-02-23 02:32:00,18.1,15.4,29.82,ENE,71,0.0,1.0,89,0.00,,---,0.00,VWS V13.01,2013-02-23 08:32:00,
2013-02-23 02:37:00,18.1,15.4,29.81,ENE,71,0.0,0.0,89,0.00,,---,0.00,VWS V13.01,2013-02-23 08:37:00,
2013-02-23 02:42:00,18.0,15.3,29.82,ENE,71,0.0,0.0,89,0.00,,---,0.00,VWS V13.01,2013-02-23 08:42:00,
2013-02-23 02:47:00,18.0,15.3,29.82,ENE,71,0.0,0.0,89,0.00,,---,0.00,VWS V13.01,2013-02-23 08:47:00,
2013-02-23 02:52:00,18.0,15.3,29.81,ENE,71,0.0,0.0,89,0.00,,---,0.00,VWS V13.01,2013-02-23 08:52:00,
2013-02-23 02:57:00,17.9,15.2,29.82,ENE,71,0.0,0.0,89,0.00,,---,0.00,VWS V13.01,2013-02-23 08:57:00,
2013-02-23 03:02:00,17.9,15.2,29.82,ENE,71,0.0,0.0,89,0.00,,---,0.00,VWS V13.01,2013-02-23 09:02:00,
2013-02-23 03:07:00,17.8,15.1,29.81,ENE,71,0.0,1.0,89,0.00,,---,0.00,VWS V13.01,2013-02-23 09:07:00,
2013-02-23 03:12:00,17.8,15.1,29.82,ENE,71,0.0,1.0,89,0.00,,---,0.00,VWS V13.01,2013-02-23 09:12:00,
2013-02-23 03:17:00,17.7,15.0,29.81,ENE,71,0.0,1.0,89,0.00,,---,0.00,VWS V13.01,2013-02-23 09:17:00,
2013-02-23 03:22:00,17.7,15.0,29.81,ENE,71,0.0,1.0,89,0.00,,---,0.00,VWS V13.01,2013-02-23 09:22:00,
2013-02-23 03:27:00,17.7,15.0,29.81,ENE,71,1.0,1.0,89,0.00,,---,0.00,VWS V13.01,2013-02-23 09:27:00,
2013-02-23 03:32:00,17.6,14.9,29.81,ENE,71,0.0,0.0,89,0.00,,---,0.00,VWS V13.01,2013-02-23 09:32:00,
2013-02-23 03:37:00,17.6,14.9,29.81,ENE,71,0.0,0.0,89,0.00,,---,0.00,VWS V13.01,2013-02-23 09:37:00,
2013-02-23 03:42:00,17.5,14.8,29.81,ENE,71,0.0,0.0,89,0.00,,---,0.00,VWS V13.01,2013-02-23 09:42:00,
2013-02-23 03:47:00,17.5,14.8,29.81,ENE,71,0.0,0.0,89,0.00,,---,0.00,VWS V13.01,2013-02-23 09:47:00,
2013-02-23 03:52:00,17.4,14.7,29.81,ENE,71,0.0,0.0,89,0.00,,---,0.00,VWS V13.01,2013-02-23 09:52:00,
2013-02-23 03:57:00,17.3,14.6,29.81,ENE,71,1.0,1.0,89,0.00,,---,0.00,VWS V13.01,2013-02-23 09:57:00,
2013-02-23 04:02:00,17.3,14.6,29.81,ENE,71,0.0,0.0,89,0.00,,---,0.00,VWS V13.01,2013-02-23 10:02:00,
2013-02-23 04:07:00,17.2,14.5,29.81,ENE,71,0.0,0.0,89,0.00,,---,0.00,VWS V13.01,2013-02-23 10:07:00,
2013-02-23 04:12:00,17.1,14.4,29.81,ENE,71,0.0,1.0,89,0.00,,---,0.00,VWS V13.01,2013-02-23 10:12:00,
2013-02-23 04:17:00,17.0,14.3,29.81,ENE,71,0.0,1.0,89,0.00,,---,0.00,VWS V13.01,2013-02-23 10:17:00,
2013-02-23 04:22:00,16.8,13.9,29.81,ENE,71,0.0,1.0,88,0.00,,---,0.00,VWS V13.01,2013-02-23 10:22:00,
2013-02-23 04:27:00,16.6,13.7,29.81,ENE,71,0.0,1.0,88,0.00,,---,0.00,VWS V13.01,2013-02-23 10:27:00,
2013-02-23 04:32:00,16.4,13.5,29.81,ENE,71,0.0,0.0,88,0.00,,---,0.00,VWS V13.01,2013-02-23 10:32:00,
2013-02-23 04:37:00,16.2,13.3,29.81,ENE,71,0.0,0.0,88,0.00,,---,0.00,VWS V13.01,2013-02-23 10:37:00,
2013-02-23 04:42:00,16.0,13.1,29.81,ENE,71,0.0,0.0,88,0.00,,---,0.00,VWS V13.01,2013-02-23 10:42:00,
2013-02-23 04:47:00,15.7,12.8,29.81,ENE,71,0.0,0.0,88,0.00,,---,0.00,VWS V13.01,2013-02-23 10:47:00,
2013-02-23 04:52:00,15.5,12.6,29.81,ENE,71,0.0,0.0,88,0.00,,---,0.00,VWS V13.01,2013-02-23 10:52:00,
2013-02-23 04:57:00,15.3,12.4,29.80,ENE,71,0.0,0.0,88,0.00,,---,0.00,VWS V13.01,2013-02-23 10:57:00,
2013-02-23 05:02:00,15.1,12.2,29.80,ENE,71,0.0,0.0,88,0.00,,---,0.00,VWS V13.01,2013-02-23 11:02:00,
2013-02-23 05:07:00,14.9,12.0,29.80,ENE,71,0.0,0.0,88,0.00,,---,0.00,VWS V13.01,2013-02-23 11:07:00,
2013-02-23 05:12:00,14.8,11.9,29.80,ENE,71,0.0,1.0,88,0.00,,---,0.00,VWS V13.01,2013-02-23 11:12:00,
2013-02-23 05:17:00,14.6,11.7,29.80,ENE,71,0.0,1.0,88,0.00,,---,0.00,VWS V13.01,2013-02-23 11:17:00,
2013-02-23 05:22:00,14.5,11.6,29.80,ENE,71,0.0,1.0,88,0.00,,---,0.00,VWS V13.01,2013-02-23 11:22:00,
2013-02-23 05:27:00,14.4,11.5,29.80,ENE,71,0.0,1.0,88,0.00,,---,0.00,VWS V13.01,2013-02-23 11:27:00,
2013-02-23 05:32:00,14.3,11.4,29.80,ENE,71,0.0,0.0,88,0.00,,---,0.00,VWS V13.01,2013-02-23 11:32:00,
2013-02-23 05:37:00,14.2,11.1,29.80,ENE,71,0.0,0.0,87,0.00,,---,0.00,VWS V13.01,2013-02-23 11:37:00,
2013-02-23 05:42:00,14.0,11.1,29.80,ENE,71,0.0,0.0,88,0.00,,---,0.00,VWS V13.01,2013-02-23 11:42:00,
2013-02-23 05:47:00,13.9,11.0,29.80,ENE,71,0.0,0.0,88,0.00,,---,0.00,VWS V13.01,2013-02-23 11:47:00,
2013-02-23 05:52:00,13.8,10.9,29.80,ENE,71,0.0,0.0,88,0.00,,---,0.00,VWS V13.01,2013-02-23 11:52:00,
2013-02-23 05:58:00,13.7,10.8,29.80,ENE,71,0.0,0.0,88,0.00,,---,0.00,VWS V13.01,2013-02-23 11:58:00,
2013-02-23 06:03:00,13.7,10.8,29.80,ENE,71,0.0,0.0,88,0.00,,---,0.00,VWS V13.01,2013-02-23 12:03:00,
2013-02-23 06:08:00,13.6,10.7,29.80,ENE,71,0.0,0.0,88,0.00,,---,0.00,VWS V13.01,2013-02-23 12:08:00,
2013-02-23 06:13:00,13.6,10.7,29.80,ENE,71,0.0,0.0,88,0.00,,---,0.00,VWS V13.01,2013-02-23 12:13:00,
2013-02-23 06:18:00,13.5,10.4,29.80,ENE,71,0.0,0.0,87,0.00,,---,0.00,VWS V13.01,2013-02-23 12:18:00,
2013-02-23 06:23:00,13.4,10.3,29.80,ENE,71,0.0,0.0,87,0.00,,---,0.00,VWS V13.01,2013-02-23 12:23:00,
2013-02-23 06:28:00,13.4,10.5,29.80,ENE,71,0.0,0.0,88,0.00,,---,0.00,VWS V13.01,2013-02-23 12:28:00,
2013-02-23 06:33:00,13.3,10.4,29.80,ENE,71,0.0,0.0,88,0.00,,---,0.00,VWS V13.01,2013-02-23 12:33:00,
2013-02-23 06:38:00,13.3,10.4,29.80,ENE,71,0.0,0.0,88,0.00,,---,0.00,VWS V13.01,2013-02-23 12:38:00,
2013-02-23 06:43:00,13.2,10.3,29.80,ENE,71,0.0,0.0,88,0.00,,---,0.00,VWS V13.01,2013-02-23 12:43:00,
2013-02-23 06:48:00,13.2,10.3,29.80,ENE,71,0.0,0.0,88,0.00,,---,0.00,VWS V13.01,2013-02-23 12:48:00,
2013-02-23 06:53:00,13.2,10.3,29.81,ENE,71,0.0,0.0,88,0.00,,---,0.00,VWS V13.01,2013-02-23 12:53:00,
2013-02-23 06:58:00,13.2,10.3,29.81,ENE,71,0.0,0.0,88,0.00,,---,0.00,VWS V13.01,2013-02-23 12:58:00,
2013-02-23 07:03:00,13.2,10.3,29.81,ENE,71,0.0,0.0,88,0.00,,---,0.00,VWS V13.01,2013-02-23 13:03:00,
2013-02-23 07:08:00,13.3,10.4,29.81,ENE,71,0.0,0.0,88,0.00,,---,0.00,VWS V13.01,2013-02-23 13:08:00,
2013-02-23 07:13:00,13.4,10.5,29.81,ENE,71,0.0,0.0,88,0.00,,---,0.00,VWS V13.01,2013-02-23 13:13:00,
2013-02-23 07:18:00,13.6,10.7,29.81,ENE,71,0.0,0.0,88,0.00,,---,0.00,VWS V13.01,2013-02-23 13:18:00,
2013-02-23 07:23:00,13.8,11.2,29.81,ENE,71,0.0,0.0,89,0.00,,---,0.00,VWS V13.01,2013-02-23 13:23:00,
2013-02-23 07:28:00,13.9,11.3,29.81,ENE,71,0.0,0.0,89,0.00,,---,0.00,VWS V13.01,2013-02-23 13:28:00,
2013-02-23 07:33:00,14.1,11.5,29.81,ENE,71,1.0,1.0,89,0.00,,---,0.00,VWS V13.01,2013-02-23 13:33:00,
2013-02-23 07:38:00,14.4,11.8,29.81,ENE,71,0.0,1.0,89,0.00,,---,0.00,VWS V13.01,2013-02-23 13:38:00,
2013-02-23 07:43:00,14.7,12.1,29.81,ENE,71,0.0,1.0,89,0.00,,---,0.00,VWS V13.01,2013-02-23 13:43:00,
2013-02-23 07:48:00,15.1,12.7,29.81,ENE,71,0.0,1.0,90,0.00,,---,0.00,VWS V13.01,2013-02-23 13:48:00,
2013-02-23 07:53:00,15.4,13.0,29.81,ENE,71,0.0,1.0,90,0.00,,---,0.00,VWS V13.01,2013-02-23 13:53:00,
2013-02-23 07:58:00,15.9,13.5,29.81,ENE,71,0.0,1.0,90,0.00,,---,0.00,VWS V13.01,2013-02-23 13:58:00,
2013-02-23 08:03:00,16.3,13.9,29.81,ENE,70,0.0,0.0,90,0.00,,---,0.00,VWS V13.01,2013-02-23 14:03:00,
2013-02-23 08:08:00,16.8,14.6,29.81,ENE,70,0.0,2.0,91,0.00,,---,0.00,VWS V13.01,2013-02-23 14:08:00,
2013-02-23 08:13:00,17.3,15.1,29.81,ENE,69,0.0,2.0,91,0.00,,---,0.00,VWS V13.01,2013-02-23 14:13:00,
2013-02-23 08:18:00,17.8,15.6,29.81,ENE,70,0.0,2.0,91,0.00,,---,0.00,VWS V13.01,2013-02-23 14:18:00,
2013-02-23 08:23:00,18.3,16.1,29.81,ENE,70,0.0,2.0,91,0.00,,---,0.00,VWS V13.01,2013-02-23 14:23:00,
2013-02-23 08:28:00,18.8,16.6,29.80,ENE,71,0.0,2.0,91,0.00,,---,0.00,VWS V13.01,2013-02-23 14:28:00,
2013-02-23 08:33:00,19.2,17.0,29.81,ENE,71,0.0,0.0,91,0.00,,---,0.00,VWS V13.01,2013-02-23 14:33:00,
2013-02-23 08:38:00,19.7,17.5,29.81,ENE,71,0.0,0.0,91,0.00,,---,0.00,VWS V13.01,2013-02-23 14:38:00,
2013-02-23 08:43:00,20.0,17.8,29.81,West,263,0.0,3.0,91,0.00,,---,0.00,VWS V13.01,2013-02-23 14:43:00,
2013-02-23 08:48:00,20.5,18.3,29.81,West,263,1.0,3.0,91,0.00,,---,0.00,VWS V13.01,2013-02-23 14:48:00,
2013-02-23 08:53:00,20.8,18.6,29.81,West,263,0.0,3.0,91,0.00,,---,0.00,VWS V13.01,2013-02-23 14:53:00,
2013-02-23 08:58:00,21.1,18.9,29.81,West,263,1.0,3.0,91,0.00,,---,0.00,VWS V13.01,2013-02-23 14:58:00,
2013-02-23 09:03:00,21.3,19.1,29.81,West,263,0.0,0.0,91,0.00,,---,0.00,VWS V13.01,2013-02-23 15:03:00,
2013-02-23 09:08:00,21.7,19.5,29.81,West,263,0.0,1.0,91,0.00,,---,0.00,VWS V13.01,2013-02-23 15:08:00,
2013-02-23 09:13:00,21.8,19.3,29.81,West,263,1.0,2.0,90,0.00,,---,0.00,VWS V13.01,2013-02-23 15:13:00,
2013-02-23 09:18:00,21.9,19.4,29.81,West,263,0.0,2.0,90,0.00,,---,0.00,VWS V13.01,2013-02-23 15:18:00,
2013-02-23 09:23:00,22.2,20.0,29.81,West,263,1.0,2.0,91,0.00,,---,0.00,VWS V13.01,2013-02-23 15:23:00,
2013-02-23 09:28:00,22.5,20.3,29.81,West,263,1.0,2.0,91,0.00,,---,0.00,VWS V13.01,2013-02-23 15:28:00,
2013-02-23 09:33:00,22.7,20.5,29.81,West,263,0.0,0.0,91,0.00,,---,0.00,VWS V13.01,2013-02-23 15:33:00,
2013-02-23 09:38:00,23.1,20.6,29.81,West,263,0.0,0.0,90,0.00,,---,0.00,VWS V13.01,2013-02-23 15:38:00,
2013-02-23 09:43:00,23.3,20.8,29.81,West,263,0.0,2.0,90,0.00,,---,0.00,VWS V13.01,2013-02-23 15:43:00,
2013-02-23 09:48:00,23.5,21.0,29.80,West,263,0.0,2.0,90,0.00,,---,0.00,VWS V13.01,2013-02-23 15:48:00,
2013-02-23 09:53:00,23.7,21.2,29.80,West,263,0.0,2.0,90,0.00,,---,0.00,VWS V13.01,2013-02-23 15:53:00,
2013-02-23 09:58:00,24.0,21.5,29.80,West,263,0.0,2.0,90,0.00,,---,0.00,VWS V13.01,2013-02-23 15:58:00,
2013-02-23 10:03:00,24.3,21.8,29.80,West,263,2.0,2.0,90,0.00,,---,0.00,VWS V13.01,2013-02-23 16:03:00,
2013-02-23 10:08:00,24.6,22.1,29.80,West,263,0.0,2.0,90,0.00,,---,0.00,VWS V13.01,2013-02-23 16:08:00,
2013-02-23 10:13:00,24.9,22.4,29.80,West,263,0.0,2.0,90,0.00,,---,0.00,VWS V13.01,2013-02-23 16:13:00,
2013-02-23 10:18:00,25.0,22.2,29.80,West,263,0.0,2.0,89,0.00,,---,0.00,VWS V13.01,2013-02-23 16:18:00,
2013-02-23 10:23:00,25.1,22.3,29.80,West,263,0.0,2.0,89,0.00,,---,0.00,VWS V13.01,2013-02-23 16:23:00,
2013-02-23 10:28:00,25.2,22.4,29.80,WSW,240,0.0,2.0,89,0.00,,---,0.00,VWS V13.01,2013-02-23 16:28:00,
2013-02-23 10:33:00,25.2,22.4,29.81,WSW,240,0.0,0.0,89,0.00,,---,0.00,VWS V13.01,2013-02-23 16:33:00,
2013-02-23 10:38:00,25.4,22.6,29.81,WSW,240,1.0,1.0,89,0.00,,---,0.00,VWS V13.01,2013-02-23 16:38:00,
2013-02-23 10:43:00,25.3,22.5,29.81,West,264,0.0,3.0,89,0.00,,---,0.00,VWS V13.01,2013-02-23 16:43:00,
2013-02-23 10:48:00,25.2,22.4,29.81,West,260,0.0,3.0,89,0.00,,---,0.00,VWS V13.01,2013-02-23 16:48:00,
2013-02-23 10:53:00,25.2,22.4,29.81,West,259,2.0,3.0,89,0.00,,---,0.00,VWS V13.01,2013-02-23 16:53:00,
2013-02-23 10:58:00,25.3,22.5,29.81,WNW,303,0.0,3.0,89,0.00,,---,0.00,VWS V13.01,2013-02-23 16:58:00,
2013-02-23 11:03:00,25.4,22.6,29.81,West,268,0.0,1.0,89,0.00,,---,0.00,VWS V13.01,2013-02-23 17:03:00,
2013-02-23 11:08:00,25.6,22.8,29.81,SW,236,2.0,2.0,89,0.00,,---,0.00,VWS V13.01,2013-02-23 17:08:00,
2013-02-23 11:13:00,25.8,23.3,29.81,WSW,240,2.0,2.0,90,0.00,,---,0.00,VWS V13.01,2013-02-23 17:13:00,
2013-02-23 11:18:00,26.1,23.6,29.81,WSW,249,0.0,3.0,90,0.00,,---,0.00,VWS V13.01,2013-02-23 17:18:00,
2013-02-23 11:23:00,26.5,24.0,29.81,WSW,249,0.0,3.0,90,0.00,,---,0.00,VWS V13.01,2013-02-23 17:23:00,
2013-02-23 11:28:00,26.9,24.1,29.81,WSW,249,0.0,3.0,89,0.00,,---,0.00,VWS V13.01,2013-02-23 17:28:00,
2013-02-23 11:33:00,27.2,24.4,29.81,WSW,249,0.0,3.0,89,0.00,,---,0.00,VWS V13.01,2013-02-23 17:33:00,
2013-02-23 11:38:00,27.4,24.6,29.81,West,264,1.0,3.0,89,0.00,,---,0.00,VWS V13.01,2013-02-23 17:38:00,
2013-02-23 11:43:00,27.5,24.7,29.81,WSW,246,0.0,3.0,89,0.00,,---,0.00,VWS V13.01,2013-02-23 17:43:00,
2013-02-23 11:48:00,27.7,24.9,29.81,West,259,1.0,3.0,89,0.00,,---,0.00,VWS V13.01,2013-02-23 17:48:00,
2013-02-23 11:53:00,27.8,25.0,29.81,NNW,337,0.0,3.0,89,0.00,,---,0.00,VWS V13.01,2013-02-23 17:53:00,
2013-02-23 11:58:00,28.0,24.9,29.81,NNW,337,1.0,3.0,88,0.00,,---,0.00,VWS V13.01,2013-02-23 17:58:00,
2013-02-23 12:03:00,28.1,25.0,29.81,WSW,248,1.0,4.0,88,0.00,,---,0.00,VWS V13.01,2013-02-23 18:03:00,
2013-02-23 12:08:00,28.2,25.1,29.80,WSW,254,0.0,4.0,88,0.00,,---,0.00,VWS V13.01,2013-02-23 18:08:00,
2013-02-23 12:13:00,28.3,25.5,29.81,WSW,254,0.0,4.0,89,0.00,,---,0.00,VWS V13.01,2013-02-23 18:13:00,
2013-02-23 12:18:00,28.5,25.7,29.80,WSW,253,0.0,4.0,89,0.00,,---,0.00,VWS V13.01,2013-02-23 18:18:00,
2013-02-23 12:23:00,28.7,25.6,29.81,WSW,254,0.0,4.0,88,0.00,,---,0.00,VWS V13.01,2013-02-23 18:23:00,
2013-02-23 12:28:00,28.8,25.7,29.80,WSW,254,3.0,4.0,88,0.00,,---,0.00,VWS V13.01,2013-02-23 18:28:00,
2013-02-23 12:33:00,28.9,25.8,29.80,WSW,256,1.0,2.0,88,0.00,,---,0.00,VWS V13.01,2013-02-23 18:33:00,
2013-02-23 12:38:00,29.2,26.1,29.80,SW,236,1.0,3.0,88,0.00,,---,0.00,VWS V13.01,2013-02-23 18:38:00,
2013-02-23 12:43:00,29.4,26.3,29.80,SW,236,1.0,3.0,88,0.00,,---,0.00,VWS V13.01,2013-02-23 18:43:00,
2013-02-23 12:48:00,29.6,26.5,29.80,West,275,1.0,3.0,88,0.00,,---,0.00,VWS V13.01,2013-02-23 18:48:00,
2013-02-23 12:53:00,29.7,26.6,29.80,West,275,1.0,3.0,88,0.00,,---,0.00,VWS V13.01,2013-02-23 18:53:00,
2013-02-23 12:59:00,29.8,26.7,29.80,West,275,1.0,3.0,88,0.00,,---,0.00,VWS V13.01,2013-02-23 18:59:00,
2013-02-23 13:04:00,30.0,26.9,29.80,West,275,2.0,2.0,88,0.00,,---,0.00,VWS V13.01,2013-02-23 19:04:00,
2013-02-23 13:09:00,30.5,27.4,29.80,West,275,0.0,2.0,88,0.00,,---,0.00,VWS V13.01,2013-02-23 19:09:00,
2013-02-23 13:14:00,31.0,27.6,29.80,West,275,1.0,2.0,87,0.00,,---,0.00,VWS V13.01,2013-02-23 19:14:00,
2013-02-23 13:19:00,31.4,28.0,29.80,West,274,0.0,2.0,87,0.00,,---,0.00,VWS V13.01,2013-02-23 19:19:00,
2013-02-23 13:24:00,31.4,27.7,29.80,West,259,1.0,3.0,86,0.00,,---,0.00,VWS V13.01,2013-02-23 19:24:00,
2013-02-23 13:29:00,31.4,27.7,29.80,West,259,1.0,3.0,86,0.00,,---,0.00,VWS V13.01,2013-02-23 19:29:00,
2013-02-23 13:34:00,31.4,27.7,29.80,West,277,0.0,1.0,86,0.00,,---,0.00,VWS V13.01,2013-02-23 19:34:00,
2013-02-23 13:39:00,31.7,28.0,29.80,West,278,1.0,2.0,86,0.00,,---,0.00,VWS V13.01,2013-02-23 19:39:00,
2013-02-23 13:44:00,32.5,28.5,29.80,West,278,1.0,2.0,85,0.00,,---,0.00,VWS V13.01,2013-02-23 19:44:00,
2013-02-23 13:49:00,31.2,26.6,29.80,WNW,286,1.0,2.0,83,0.00,,---,0.00,VWS V13.01,2013-02-23 19:49:00,
2013-02-23 13:54:00,30.8,26.5,29.80,WSW,252,1.0,2.0,84,0.00,,---,0.00,VWS V13.01,2013-02-23 19:54:00,
2013-02-23 13:59:00,30.2,25.7,29.80,WNW,301,1.0,3.0,83,0.00,,---,0.00,VWS V13.01,2013-02-23 19:59:00,
2013-02-23 14:04:00,29.8,25.9,29.80,WNW,301,1.0,2.0,85,0.00,,---,0.00,VWS V13.01,2013-02-23 20:04:00,
2013-02-23 14:09:00,29.6,25.9,29.80,WNW,300,1.0,2.0,86,0.00,,---,0.00,VWS V13.01,2013-02-23 20:09:00,
2013-02-23 14:14:00,29.6,26.2,29.80,WNW,297,2.0,2.0,87,0.00,,---,0.00,VWS V13.01,2013-02-23 20:14:00,
2013-02-23 14:19:00,29.5,26.1,29.80,NW,305,2.0,3.0,87,0.00,,---,0.00,VWS V13.01,2013-02-23 20:19:00,
2013-02-23 14:24:00,29.4,26.0,29.80,NW,305,1.0,3.0,87,0.00,,---,0.00,VWS V13.01,2013-02-23 20:24:00,
2013-02-23 14:29:00,29.2,26.1,29.81,NW,313,2.0,3.0,88,0.00,,---,0.00,VWS V13.01,2013-02-23 20:29:00,
2013-02-23 14:34:00,29.2,26.1,29.81,NW,315,3.0,4.0,88,0.00,,---,0.00,VWS V13.01,2013-02-23 20:34:00,
2013-02-23 14:39:00,29.0,25.9,29.81,NNW,343,3.0,4.0,88,0.00,,---,0.00,VWS V13.01,2013-02-23 20:39:00,
2013-02-23 14:44:00,29.0,26.2,29.81,NW,319,2.0,4.0,89,0.00,,---,0.00,VWS V13.01,2013-02-23 20:44:00,
2013-02-23 14:49:00,29.1,26.3,29.81,NW,318,0.0,4.0,89,0.00,,---,0.00,VWS V13.01,2013-02-23 20:49:00,
2013-02-23 14:54:00,29.2,26.4,29.81,NW,319,1.0,4.0,89,0.00,,---,0.00,VWS V13.01,2013-02-23 20:54:00,
2013-02-23 14:59:00,29.1,26.3,29.82,NNW,345,2.0,4.0,89,0.00,,---,0.00,VWS V13.01,2013-02-23 20:59:00,
2013-02-23 15:04:00,29.0,26.2,29.82,NNW,337,3.0,3.0,89,0.00,,---,0.00,VWS V13.01,2013-02-23 21:04:00,
2013-02-23 15:09:00,28.7,25.6,29.82,NW,321,3.0,5.0,88,0.00,,---,0.00,VWS V13.01,2013-02-23 21:09:00,
2013-02-23 15:14:00,28.4,25.3,29.82,North,355,3.0,5.0,88,0.00,,---,0.00,VWS V13.01,2013-02-23 21:14:00,
2013-02-23 15:19:00,28.2,25.1,29.82,NNW,338,2.0,5.0,88,0.00,,---,0.00,VWS V13.01,2013-02-23 21:19:00,
2013-02-23 15:24:00,28.1,25.0,29.82,North,355,4.0,5.0,88,0.00,,---,0.00,VWS V13.01,2013-02-23 21:24:00,
2013-02-23 15:29:00,28.0,24.9,29.83,North,350,4.0,7.0,88,0.00,,---,0.00,VWS V13.01,2013-02-23 21:29:00,
2013-02-23 15:34:00,27.9,24.8,29.83,NNW,343,2.0,5.0,88,0.00,,---,0.00,VWS V13.01,2013-02-23 21:34:00,
2013-02-23 15:39:00,27.9,25.1,29.83,NNW,343,2.0,5.0,89,0.00,,---,0.00,VWS V13.01,2013-02-23 21:39:00,
2013-02-23 15:44:00,27.9,25.1,29.83,NNW,345,2.0,5.0,89,0.00,,---,0.00,VWS V13.01,2013-02-23 21:44:00,
2013-02-23 15:49:00,27.9,25.1,29.83,NNW,346,1.0,5.0,89,0.00,,---,0.00,VWS V13.01,2013-02-23 21:49:00,
2013-02-23 15:54:00,27.9,25.1,29.83,NNW,348,2.0,5.0,89,0.00,,---,0.00,VWS V13.01,2013-02-23 21:54:00,
2013-02-23 15:59:00,27.9,25.1,29.83,North,349,2.0,5.0,89,0.00,,---,0.00,VWS V13.01,2013-02-23 21:59:00,
2013-02-23 16:04:00,28.0,25.2,29.83,North,349,1.0,3.0,89,0.00,,---,0.00,VWS V13.01,2013-02-23 22:04:00,
2013-02-23 16:09:00,28.1,25.3,29.83,NNW,348,0.0,4.0,89,0.00,,---,0.00,VWS V13.01,2013-02-23 22:09:00,
2013-02-23 16:14:00,28.1,25.3,29.83,North,355,3.0,4.0,89,0.00,,---,0.00,VWS V13.01,2013-02-23 22:14:00,
2013-02-23 16:19:00,28.1,25.0,29.83,NNW,336,2.0,6.0,88,0.00,,---,0.00,VWS V13.01,2013-02-23 22:19:00,
2013-02-23 16:24:00,28.0,24.9,29.84,NNW,330,2.0,6.0,88,0.00,,---,0.00,VWS V13.01,2013-02-23 22:24:00,
2013-02-23 16:29:00,27.8,24.4,29.84,NW,319,3.0,6.0,87,0.00,,---,0.00,VWS V13.01,2013-02-23 22:29:00,
2013-02-23 16:34:00,27.7,24.3,29.84,NNW,341,3.0,5.0,87,0.00,,---,0.00,VWS V13.01,2013-02-23 22:34:00,
2013-02-23 16:39:00,27.6,24.2,29.84,NNW,341,3.0,5.0,87,0.00,,---,0.00,VWS V13.01,2013-02-23 22:39:00,
2013-02-23 16:44:00,27.5,24.1,29.84,NNW,336,3.0,5.0,87,0.00,,---,0.00,VWS V13.01,2013-02-23 22:44:00,
2013-02-23 16:49:00,27.4,24.0,29.84,NNW,342,3.0,5.0,87,0.00,,---,0.00,VWS V13.01,2013-02-23 22:49:00,
2013-02-23 16:54:00,27.3,24.0,29.84,NNW,332,3.0,6.0,87,0.00,,---,0.00,VWS V13.01,2013-02-23 22:54:00,
2013-02-23 16:59:00,27.2,23.6,29.84,NNW,338,2.0,6.0,86,0.00,,---,0.00,VWS V13.01,2013-02-23 22:59:00,
2013-02-23 17:04:00,27.1,23.5,29.84,NNW,341,2.0,4.0,86,0.00,,---,0.00,VWS V13.01,2013-02-23 23:04:00,
2013-02-23 17:09:00,27.0,23.4,29.85,NNW,340,2.0,4.0,86,0.00,,---,0.00,VWS V13.01,2013-02-23 23:09:00,
2013-02-23 17:14:00,26.9,23.3,29.85,NNW,342,2.0,4.0,86,0.00,,---,0.00,VWS V13.01,2013-02-23 23:14:00,
2013-02-23 17:19:00,26.9,23.3,29.85,NNW,334,2.0,4.0,86,0.00,,---,0.00,VWS V13.01,2013-02-23 23:19:00,
2013-02-23 17:24:00,26.8,23.2,29.85,NNW,333,2.0,4.0,86,0.00,,---,0.00,VWS V13.01,2013-02-23 23:24:00,
2013-02-23 17:30:00,26.6,23.0,29.85,NNW,342,3.0,4.0,86,0.00,,---,0.00,VWS V13.01,2013-02-23 23:30:00,
2013-02-23 17:35:00,26.6,23.0,29.85,NNW,341,2.0,3.0,86,0.00,,---,0.00,VWS V13.01,2013-02-23 23:35:00,
2013-02-23 17:40:00,26.5,22.9,29.86,NNW,344,1.0,3.0,86,0.00,,---,0.00,VWS V13.01,2013-02-23 23:40:00,
2013-02-23 17:45:00,26.4,22.8,29.86,NNW,343,1.0,3.0,86,0.00,,---,0.00,VWS V13.01,2013-02-23 23:45:00,
2013-02-23 17:50:00,26.3,22.7,29.86,NNW,343,2.0,3.0,86,0.00,,---,0.00,VWS V13.01,2013-02-23 23:50:00,
2013-02-23 17:55:00,26.3,23.0,29.86,NNW,343,1.0,3.0,87,0.00,,---,0.00,VWS V13.01,2013-02-23 23:55:00,
2013-02-23 18:00:00,26.2,22.9,29.86,NNW,342,0.0,3.0,87,0.00,,---,0.00,VWS V13.01,2013-02-24 00:00:00,
2013-02-23 18:05:00,26.2,22.9,29.86,NNW,343,0.0,1.0,87,0.00,,---,0.00,VWS V13.01,2013-02-24 00:05:00,
2013-02-23 18:10:00,26.1,22.8,29.87,NNW,343,0.0,1.0,87,0.00,,---,0.00,VWS V13.01,2013-02-24 00:10:00,
2013-02-23 18:15:00,26.0,22.7,29.87,NNW,342,1.0,1.0,87,0.00,,---,0.00,VWS V13.01,2013-02-24 00:15:00,
2013-02-23 18:20:00,26.0,22.7,29.87,NNW,342,1.0,3.0,87,0.00,,---,0.00,VWS V13.01,2013-02-24 00:20:00,
2013-02-23 18:25:00,26.0,22.7,29.87,NNW,343,2.0,3.0,87,0.00,,---,0.00,VWS V13.01,2013-02-24 00:25:00,
2013-02-23 18:30:00,25.9,22.6,29.87,NNW,343,1.0,3.0,87,0.00,,---,0.00,VWS V13.01,2013-02-24 00:30:00,
2013-02-23 18:35:00,25.8,22.5,29.87,NNW,342,0.0,2.0,87,0.00,,---,0.00,VWS V13.01,2013-02-24 00:35:00,
2013-02-23 18:40:00,25.7,22.4,29.87,NNW,343,1.0,2.0,87,0.00,,---,0.00,VWS V13.01,2013-02-24 00:40:00,
2013-02-23 18:45:00,25.6,22.3,29.88,NNW,343,1.0,2.0,87,0.00,,---,0.00,VWS V13.01,2013-02-24 00:45:00,
2013-02-23 18:50:00,25.5,22.2,29.88,NNW,342,1.0,2.0,87,0.00,,---,0.00,VWS V13.01,2013-02-24 00:50:00,
2013-02-23 18:55:00,25.5,22.2,29.88,NNW,342,1.0,2.0,87,0.00,,---,0.00,VWS V13.01,2013-02-24 00:55:00,
2013-02-23 19:00:00,25.4,22.1,29.88,NNW,343,0.0,2.0,87,0.00,,---,0.00,VWS V13.01,2013-02-24 01:00:00,
2013-02-23 19:05:00,25.4,22.1,29.88,NNW,343,2.0,2.0,87,0.00,,---,0.00,VWS V13.01,2013-02-24 01:05:00,
2013-02-23 19:10:00,25.3,22.0,29.88,NNW,343,1.0,2.0,87,0.00,,---,0.00,VWS V13.01,2013-02-24 01:10:00,
2013-02-23 19:15:00,25.2,21.9,29.88,NNW,342,0.0,2.0,87,0.00,,---,0.00,VWS V13.01,2013-02-24 01:15:00,
2013-02-23 19:20:00,25.2,21.9,29.89,NNW,343,2.0,2.0,87,0.00,,---,0.00,VWS V13.01,2013-02-24 01:20:00,
2013-02-23 19:25:00,25.2,21.9,29.88,NNW,343,1.0,2.0,87,0.00,,---,0.00,VWS V13.01,2013-02-24 01:25:00,
2013-02-23 19:30:00,25.1,22.0,29.88,NNW,342,1.0,2.0,88,0.00,,---,0.00,VWS V13.01,2013-02-24 01:30:00,
2013-02-23 19:35:00,25.1,22.0,29.88,NNW,342,1.0,2.0,88,0.00,,---,0.00,VWS V13.01,2013-02-24 01:35:00,
2013-02-23 19:40:00,25.1,22.0,29.89,NW,324,1.0,2.0,88,0.00,,---,0.00,VWS V13.01,2013-02-24 01:40:00,
2013-02-23 19:45:00,25.1,22.0,29.89,NW,324,1.0,2.0,88,0.00,,---,0.00,VWS V13.01,2013-02-24 01:45:00,
2013-02-23 19:50:00,25.1,22.0,29.89,NW,324,0.0,2.0,88,0.00,,---,0.00,VWS V13.01,2013-02-24 01:50:00,
2013-02-23 19:55:00,25.1,22.0,29.89,NW,325,2.0,2.0,88,0.00,,---,0.00,VWS V13.01,2013-02-24 01:55:00,
2013-02-23 20:00:00,25.1,22.0,29.89,NW,325,0.0,2.0,88,0.00,,---,0.00,VWS V13.01,2013-02-24 02:00:00,
2013-02-23 20:05:00,25.1,22.0,29.89,NW,325,0.0,1.0,88,0.00,,---,0.00,VWS V13.01,2013-02-24 02:05:00,
2013-02-23 20:10:00,25.1,22.0,29.89,NW,325,1.0,2.0,88,0.00,,---,0.00,VWS V13.01,2013-02-24 02:10:00,
2013-02-23 20:15:00,25.1,22.0,29.90,NW,325,1.0,2.0,88,0.00,,---,0.00,VWS V13.01,2013-02-24 02:15:00,
2013-02-23 20:20:00,25.1,22.0,29.89,NW,325,0.0,2.0,88,0.00,,---,0.00,VWS V13.01,2013-02-24 02:20:00,
2013-02-23 20:25:00,25.0,22.0,29.90,NW,325,0.0,2.0,88,0.00,,---,0.00,VWS V13.01,2013-02-24 02:25:00,
2013-02-23 20:30:00,25.0,22.0,29.90,NW,325,1.0,2.0,88,0.00,,---,0.00,VWS V13.01,2013-02-24 02:30:00,
2013-02-23 20:35:00,25.0,22.0,29.90,NW,325,0.0,2.0,88,0.00,,---,0.00,VWS V13.01,2013-02-24 02:35:00,
2013-02-23 20:40:00,24.9,21.9,29.90,NW,325,1.0,2.0,88,0.00,,---,0.00,VWS V13.01,2013-02-24 02:40:00,
2013-02-23 20:46:00,25.0,22.0,29.90,NW,325,0.0,2.0,88,0.00,,---,0.00,VWS V13.01,2013-02-24 02:46:00,
2013-02-23 20:51:00,24.9,21.9,29.90,NW,325,1.0,2.0,88,0.00,,---,0.00,VWS V13.01,2013-02-24 02:51:00,
2013-02-23 20:56:00,24.9,21.9,29.90,NW,325,1.0,2.0,88,0.00,,---,0.00,VWS V13.01,2013-02-24 02:56:00,
2013-02-23 21:01:00,24.9,22.1,29.90,NW,325,0.0,2.0,89,0.00,,---,0.00,VWS V13.01,2013-02-24 03:01:00,
2013-02-23 21:06:00,24.8,22.0,29.90,NW,325,0.0,1.0,89,0.00,,---,0.00,VWS V13.01,2013-02-24 03:06:00,
2013-02-23 21:11:00,24.8,22.0,29.90,NW,325,0.0,1.0,89,0.00,,---,0.00,VWS V13.01,2013-02-24 03:11:00,
2013-02-23 21:16:00,24.7,21.9,29.90,NW,325,0.0,1.0,89,0.00,,---,0.00,VWS V13.01,2013-02-24 03:16:00,
2013-02-23 21:21:00,24.7,21.9,29.90,NW,325,0.0,1.0,89,0.00,,---,0.00,VWS V13.01,2013-02-24 03:21:00,
2013-02-23 21:26:00,24.6,21.8,29.90,NW,325,1.0,2.0,89,0.00,,---,0.00,VWS V13.01,2013-02-24 03:26:00,
2013-02-23 21:31:00,24.6,21.8,29.90,NW,325,0.0,2.0,89,0.00,,---,0.00,VWS V13.01,2013-02-24 03:31:00,
2013-02-23 21:36:00,24.5,21.7,29.91,NW,325,0.0,2.0,89,0.00,,---,0.00,VWS V13.01,2013-02-24 03:36:00,
2013-02-23 21:41:00,24.4,21.6,29.91,NW,324,1.0,2.0,89,0.00,,---,0.00,VWS V13.01,2013-02-24 03:41:00,
2013-02-23 21:46:00,24.4,21.6,29.91,NW,324,0.0,2.0,89,0.00,,---,0.00,VWS V13.01,2013-02-24 03:46:00,
2013-02-23 21:51:00,24.4,21.6,29.91,NW,323,0.0,2.0,89,0.00,,---,0.00,VWS V13.01,2013-02-24 03:51:00,
2013-02-23 21:56:00,24.3,21.5,29.91,NW,324,0.0,2.0,89,0.00,,---,0.00,VWS V13.01,2013-02-24 03:56:00,
2013-02-23 22:01:00,24.3,21.5,29.91,NW,323,1.0,2.0,89,0.00,,---,0.00,VWS V13.01,2013-02-24 04:01:00,
2013-02-23 22:06:00,24.2,21.4,29.91,NW,323,0.0,2.0,89,0.00,,---,0.00,VWS V13.01,2013-02-24 04:06:00,
2013-02-23 22:11:00,24.2,21.4,29.91,NW,324,0.0,2.0,89,0.00,,---,0.00,VWS V13.01,2013-02-24 04:11:00,
2013-02-23 22:16:00,24.2,21.4,29.91,NW,324,0.0,2.0,89,0.00,,---,0.00,VWS V13.01,2013-02-24 04:16:00,
2013-02-23 22:21:00,24.1,21.3,29.91,NW,324,0.0,2.0,89,0.00,,---,0.00,VWS V13.01,2013-02-24 04:21:00,
2013-02-23 22:26:00,24.1,21.3,29.91,NW,323,1.0,2.0,89,0.00,,---,0.00,VWS V13.01,2013-02-24 04:26:00,
2013-02-23 22:31:00,24.0,21.2,29.92,NW,324,1.0,2.0,89,0.00,,---,0.00,VWS V13.01,2013-02-24 04:31:00,
2013-02-23 22:37:00,24.0,21.2,29.92,NW,324,1.0,2.0,89,0.00,,---,0.00,VWS V13.01,2013-02-24 04:37:00,
2013-02-23 22:42:00,24.0,21.2,29.92,NW,325,0.0,2.0,89,0.00,,---,0.00,VWS V13.01,2013-02-24 04:42:00,
2013-02-23 22:47:00,24.0,21.2,29.91,NW,325,2.0,2.0,89,0.00,,---,0.00,VWS V13.01,2013-02-24 04:47:00,
2013-02-23 22:52:00,24.0,21.2,29.91,NW,325,0.0,2.0,89,0.00,,---,0.00,VWS V13.01,2013-02-24 04:52:00,
2013-02-23 22:57:00,23.9,20.9,29.91,North,350,2.0,3.0,88,0.00,,---,0.00,VWS V13.01,2013-02-24 04:57:00,
2013-02-23 23:00:00,23.9,20.9,29.92,North,350,1.0,3.0,88,0.00,,---,0.00,VWS V13.01,2013-02-24 05:00:00,
2013-02-23 23:05:00,23.9,20.9,29.91,NNW,344,1.0,2.0,88,0.00,,---,0.00,VWS V13.01,2013-02-24 05:05:00,
2013-02-23 23:10:00,23.9,20.9,29.92,NNW,344,1.0,3.0,88,0.00,,---,0.00,VWS V13.01,2013-02-24 05:10:00,
2013-02-23 23:15:00,23.8,20.8,29.92,NNW,344,0.0,3.0,88,0.00,,---,0.00,VWS V13.01,2013-02-24 05:15:00,
2013-02-23 23:20:00,23.8,20.8,29.92,NNW,344,1.0,3.0,88,0.00,,---,0.00,VWS V13.01,2013-02-24 05:20:00,
2013-02-23 23:25:00,23.8,20.8,29.92,North,349,1.0,3.0,88,0.00,,---,0.00,VWS V13.01,2013-02-24 05:25:00,
2013-02-23 23:30:00,23.8,20.8,29.92,North,5,1.0,3.0,88,0.00,,---,0.00,VWS V13.01,2013-02-24 05:30:00,
2013-02-23 23:35:00,23.8,20.8,29.92,North,5,1.0,1.0,88,0.00,,---,0.00,VWS V13.01,2013-02-24 05:35:00,
2013-02-23 23:40:00,23.7,20.7,29.92,North,5,0.0,2.0,88,0.00,,---,0.00,VWS V13.01,2013-02-24 05:40:00,
2013-02-23 23:45:00,23.7,20.7,29.92,North,5,1.0,2.0,88,0.00,,---,0.00,VWS V13.01,2013-02-24 05:45:00,
2013-02-23 23:50:00,23.6,20.3,29.92,NNW,330,2.0,4.0,87,0.00,,---,0.00,VWS V13.01,2013-02-24 05:50:00,
2013-02-23 23:56:00,23.5,20.2,29.92,NNW,327,3.0,4.0,87,0.00,,---,0.00,VWS V13.01,2013-02-24 05:56:00,